createdAt,value
2022-08-28T00:01:03.899Z,48.34
2022-08-28T00:03:35.349Z,48.62
2022-08-28T00:06:06.267Z,48.61
2022-08-28T00:08:36.577Z,48.66
2022-08-28T00:11:07.297Z,47.85
2022-08-28T00:13:38.073Z,47.87
2022-08-28T00:16:11.046Z,48.07
2022-08-28T00:18:41.442Z,47.97
2022-08-28T00:21:11.618Z,48.04
2022-08-28T00:23:43.335Z,47.87
2022-08-28T00:26:34.026Z,48.06
2022-08-28T00:29:02.076Z,48.37
2022-08-28T00:31:37.623Z,48.41
2022-08-28T00:34:08.117Z,48.20
2022-08-28T00:36:39.635Z,48.54
2022-08-28T00:39:11.119Z,48.75
2022-08-28T00:41:43.625Z,48.77
2022-08-28T00:44:18.278Z,48.71
2022-08-28T00:46:52.793Z,48.52
2022-08-28T00:49:27.641Z,48.74
2022-08-28T00:52:10.798Z,49.07
2022-08-28T00:54:55.374Z,49.07
2022-08-28T00:57:31.993Z,49.11
2022-08-28T01:00:02.607Z,48.90
2022-08-28T01:02:35.901Z,49.50
2022-08-28T01:05:07.751Z,49.48
2022-08-28T01:07:38.020Z,49.69
2022-08-28T01:10:11.840Z,50.07
2022-08-28T01:12:41.746Z,50.42
2022-08-28T01:15:17.608Z,50.65
2022-08-28T01:17:54.883Z,50.47
2022-08-28T01:20:28.373Z,50.55
2022-08-28T01:23:06.155Z,51.09
2022-08-28T01:25:41.019Z,51.63
2022-08-28T01:28:14.496Z,52.37
2022-08-28T01:30:47.849Z,52.50
2022-08-28T01:33:19.688Z,53.07
2022-08-28T01:35:59.480Z,52.89
2022-08-28T01:38:30.174Z,53.13
2022-08-28T01:41:03.050Z,53.23
2022-08-28T01:43:34.283Z,53.37
2022-08-28T01:46:06.531Z,53.05
2022-08-28T01:48:40.457Z,53.53
2022-08-28T01:51:11.519Z,53.23
2022-08-28T01:53:42.293Z,53.52
2022-08-28T01:56:20.134Z,53.35
2022-08-28T01:58:51.011Z,52.95
2022-08-28T02:01:43.606Z,52.92
2022-08-28T02:04:14.438Z,53.34
2022-08-28T02:06:45.163Z,53.32
2022-08-28T02:09:15.496Z,53.43
2022-08-28T02:11:48.301Z,53.46
2022-08-28T02:14:18.710Z,53.18
2022-08-28T02:16:49.007Z,53.46
2022-08-28T02:19:19.124Z,53.00
2022-08-28T02:21:49.329Z,53.31
2022-08-28T02:24:20.437Z,52.51
2022-08-28T02:26:53.287Z,52.37
2022-08-28T02:29:23.744Z,52.28
2022-08-28T02:31:53.968Z,52.09
2022-08-28T02:34:25.311Z,52.17
2022-08-28T02:36:56.398Z,52.38
2022-08-28T02:39:26.622Z,51.35
2022-08-28T02:41:59.461Z,51.39
2022-08-28T02:44:29.692Z,51.72
2022-08-28T02:47:00.834Z,51.55
2022-08-28T02:49:33.062Z,51.25
2022-08-28T02:52:07.558Z,51.18
2022-08-28T02:54:38.925Z,51.67
2022-08-28T02:57:12.580Z,51.46
2022-08-28T02:59:43.565Z,50.66
2022-08-28T03:02:13.821Z,50.90
2022-08-28T03:04:44.680Z,50.93
2022-08-28T03:07:15.777Z,50.57
2022-08-28T03:09:46.474Z,50.34
2022-08-28T03:12:24.200Z,50.40
2022-08-28T03:14:54.735Z,50.31
2022-08-28T03:17:25.301Z,50.48
2022-08-28T03:19:55.443Z,51.18
2022-08-28T03:22:45.787Z,52.03
2022-08-28T03:25:17.530Z,51.93
2022-08-28T03:27:50.308Z,51.99
2022-08-28T03:30:22.513Z,52.35
2022-08-28T03:32:52.996Z,52.57
2022-08-28T03:35:23.578Z,53.37
2022-08-28T03:37:53.962Z,53.75
2022-08-28T03:40:24.844Z,54.01
2022-08-28T03:42:57.836Z,54.07
2022-08-28T03:45:29.683Z,53.91
2022-08-28T03:47:59.909Z,53.34
2022-08-28T03:50:30.218Z,52.93
2022-08-28T03:53:00.726Z,53.40
2022-08-28T03:55:31.701Z,52.85
2022-08-28T03:58:04.599Z,53.31
2022-08-28T04:00:35.661Z,52.90
2022-08-28T04:03:06.496Z,53.02
2022-08-28T04:05:37.771Z,52.63
2022-08-28T04:08:08.329Z,52.50
2022-08-28T04:10:39.254Z,52.34
2022-08-28T04:13:12.813Z,51.91
2022-08-28T04:15:43.929Z,52.08
2022-08-28T04:18:15.932Z,51.93
2022-08-28T04:20:46.569Z,51.35
2022-08-28T04:23:16.883Z,50.95
2022-08-28T04:25:47.027Z,50.79
2022-08-28T04:28:20.039Z,50.43
2022-08-28T04:30:50.207Z,50.89
2022-08-28T04:33:20.752Z,50.08
2022-08-28T04:35:50.904Z,50.04
2022-08-28T04:38:21.303Z,50.52
2022-08-28T04:40:51.499Z,49.86
2022-08-28T04:43:24.310Z,50.40
2022-08-28T04:45:54.602Z,50.51
2022-08-28T04:48:25.163Z,50.18
2022-08-28T04:50:55.946Z,49.96
2022-08-28T04:53:26.229Z,49.73
2022-08-28T04:55:59.115Z,49.30
2022-08-28T04:58:33.695Z,48.82
2022-08-28T05:01:09.864Z,48.84
2022-08-28T05:03:40.416Z,48.46
2022-08-28T05:06:11.536Z,48.60
2022-08-28T05:08:41.761Z,48.62
2022-08-28T05:11:14.790Z,48.62
2022-08-28T05:14:07.162Z,48.18
2022-08-28T05:16:43.847Z,48.05
2022-08-28T05:19:14.742Z,47.97
2022-08-28T05:21:45.271Z,46.86
2022-08-28T05:24:15.688Z,45.92
2022-08-28T05:26:48.310Z,44.61
2022-08-28T05:29:21.561Z,43.36
2022-08-28T05:31:53.804Z,42.78
2022-08-28T05:34:24.114Z,41.05
2022-08-28T05:36:54.329Z,40.83
2022-08-28T05:39:24.570Z,41.18
2022-08-28T05:41:54.768Z,41.57
2022-08-28T05:44:27.603Z,41.92
2022-08-28T05:46:57.792Z,42.61
2022-08-28T05:49:28.288Z,42.81
2022-08-28T05:51:58.750Z,43.29
2022-08-28T05:54:29.208Z,42.92
2022-08-28T05:56:59.441Z,42.82
2022-08-28T05:59:32.270Z,42.52
2022-08-28T06:02:04.498Z,41.62
2022-08-28T06:04:36.524Z,41.61
2022-08-28T06:07:07.183Z,41.30
2022-08-28T06:09:38.512Z,40.96
2022-08-28T06:12:11.910Z,40.28
2022-08-28T06:14:45.033Z,39.98
2022-08-28T06:17:15.194Z,39.65
2022-08-28T06:19:45.509Z,39.40
2022-08-28T06:22:15.695Z,39.20
2022-08-28T06:24:46.002Z,38.64
2022-08-28T06:27:21.240Z,38.43
2022-08-28T06:29:54.191Z,38.12
2022-08-28T06:32:24.426Z,37.34
2022-08-28T06:34:54.872Z,37.57
2022-08-28T06:37:25.102Z,37.22
2022-08-28T06:39:55.373Z,36.50
2022-08-28T06:42:25.558Z,36.73
2022-08-28T06:44:58.374Z,35.55
2022-08-28T06:47:28.668Z,34.60
2022-08-28T06:49:58.861Z,34.32
2022-08-28T06:52:29.085Z,33.44
2022-08-28T06:55:00.990Z,32.92
2022-08-28T06:57:31.867Z,32.95
2022-08-28T07:00:05.174Z,32.72
2022-08-28T07:02:35.468Z,33.09
2022-08-28T07:05:05.756Z,33.77
2022-08-28T07:07:36.313Z,34.39
2022-08-28T07:10:07.052Z,34.61
2022-08-28T07:12:37.253Z,35.33
2022-08-28T07:15:11.505Z,35.10
2022-08-28T07:17:41.731Z,35.02
2022-08-28T07:20:13.559Z,34.74
2022-08-28T07:22:44.030Z,34.83
2022-08-28T07:25:14.371Z,33.34
2022-08-28T07:27:44.697Z,31.96
2022-08-28T07:30:17.963Z,33.13
2022-08-28T07:32:51.481Z,31.56
2022-08-28T07:35:22.276Z,31.60
2022-08-28T07:37:52.555Z,31.93
2022-08-28T07:40:23.144Z,31.44
2022-08-28T07:43:05.809Z,31.07
2022-08-28T07:45:38.740Z,30.90
2022-08-28T07:48:11.614Z,30.59
2022-08-28T07:50:42.013Z,29.65
2022-08-28T07:53:12.701Z,28.61
2022-08-28T07:55:42.910Z,28.30
2022-08-28T07:58:13.363Z,27.12
2022-08-28T08:00:46.420Z,26.99
2022-08-28T08:03:18.174Z,26.04
2022-08-28T08:05:55.823Z,25.73
2022-08-28T08:08:28.583Z,26.11
2022-08-28T08:11:00.536Z,26.60
2022-08-28T08:13:33.807Z,26.20
2022-08-28T08:16:12.059Z,26.63
2022-08-28T08:18:44.423Z,26.76
2022-08-28T08:21:17.162Z,27.05
2022-08-28T08:23:47.589Z,27.56
2022-08-28T08:26:20.736Z,27.09
2022-08-28T08:28:51.040Z,26.62
2022-08-28T08:31:26.571Z,27.59
2022-08-28T08:34:01.531Z,27.16
2022-08-28T08:36:35.197Z,28.08
2022-08-28T08:39:09.626Z,26.92
2022-08-28T08:41:48.411Z,25.69
2022-08-28T08:44:33.477Z,25.63
2022-08-28T08:47:19.579Z,27.12
2022-08-28T08:49:54.440Z,26.12
2022-08-28T08:52:35.394Z,25.20
2022-08-28T08:55:19.864Z,24.60
2022-08-28T08:57:54.450Z,23.71
2022-08-28T09:00:25.078Z,23.73
2022-08-28T09:03:07.729Z,24.13
2022-08-28T09:05:50.278Z,24.69
2022-08-28T09:08:29.802Z,24.72
2022-08-28T09:11:06.766Z,24.42
2022-08-28T09:13:51.809Z,24.27
2022-08-28T09:16:30.261Z,23.50
2022-08-28T09:19:04.599Z,23.62
2022-08-28T09:21:37.592Z,22.46
2022-08-28T09:24:10.992Z,23.27
2022-08-28T09:26:43.334Z,24.17
2022-08-28T09:29:20.509Z,24.09
2022-08-28T09:31:50.771Z,22.73
2022-08-28T09:34:27.942Z,23.28
2022-08-28T09:36:59.871Z,23.66
2022-08-28T09:39:32.692Z,23.88
2022-08-28T09:42:30.193Z,24.52
2022-08-28T09:45:09.466Z,25.05
2022-08-28T09:47:46.665Z,24.07
2022-08-28T09:50:35.719Z,23.54
2022-08-28T09:53:22.468Z,24.37
2022-08-28T09:56:16.410Z,23.69
2022-08-28T09:58:49.864Z,23.76
2022-08-28T10:01:39.485Z,23.70
2022-08-28T10:04:43.558Z,22.69
2022-08-28T10:07:26.444Z,22.84
2022-08-28T10:10:17.444Z,22.55
2022-08-28T10:13:01.604Z,22.29
2022-08-28T10:15:43.133Z,22.88
2022-08-28T10:18:35.031Z,21.49
2022-08-28T10:21:14.163Z,21.87
2022-08-28T10:24:06.676Z,22.51
2022-08-28T10:26:43.366Z,22.22
2022-08-28T10:29:28.855Z,22.13
2022-08-28T10:32:16.983Z,22.28
2022-08-28T10:35:00.525Z,21.88
2022-08-28T10:37:45.016Z,22.09
2022-08-28T10:40:25.308Z,22.18
2022-08-28T10:43:03.356Z,22.09
2022-08-28T10:45:37.189Z,22.76
2022-08-28T10:48:14.038Z,22.34
2022-08-28T10:50:48.873Z,22.55
2022-08-28T10:53:22.299Z,23.11
2022-08-28T10:56:00.212Z,22.08
2022-08-28T10:58:31.187Z,22.61
2022-08-28T11:01:06.268Z,22.32
2022-08-28T11:03:43.549Z,22.11
2022-08-28T11:06:23.525Z,21.81
2022-08-28T11:08:57.562Z,22.45
2022-08-28T11:11:48.847Z,22.33
2022-08-28T11:14:28.467Z,23.31
2022-08-28T11:17:02.576Z,22.45
2022-08-28T11:19:59.480Z,23.19
2022-08-28T11:22:34.408Z,23.15
2022-08-28T11:25:14.091Z,23.72
2022-08-28T11:28:18.601Z,22.99
2022-08-28T11:30:50.970Z,22.48
2022-08-28T11:33:42.041Z,22.48
2022-08-28T11:36:14.301Z,23.17
2022-08-28T11:39:04.501Z,23.72
2022-08-28T11:41:38.658Z,23.85
2022-08-28T11:44:28.484Z,24.41
2022-08-28T11:47:34.105Z,23.60
2022-08-28T11:50:15.769Z,24.06
2022-08-28T11:53:14.165Z,22.90
2022-08-28T11:56:05.224Z,23.52
2022-08-28T11:58:44.325Z,23.05
2022-08-28T12:01:30.611Z,23.37
2022-08-28T12:04:07.551Z,23.38
2022-08-28T12:07:23.277Z,24.07
2022-08-28T12:09:53.605Z,23.35
2022-08-28T12:12:55.082Z,23.34
2022-08-28T12:15:42.869Z,24.01
2022-08-28T12:18:57.159Z,24.21
2022-08-28T12:21:28.788Z,24.57
2022-08-28T12:24:09.069Z,24.28
2022-08-28T12:26:46.537Z,24.60
2022-08-28T12:29:30.867Z,25.23
2022-08-28T12:32:19.094Z,24.99
2022-08-28T12:35:10.800Z,25.45
2022-08-28T12:37:52.391Z,25.56
2022-08-28T12:40:26.905Z,25.09
2022-08-28T12:43:00.300Z,25.09
2022-08-28T12:45:35.004Z,25.47
2022-08-28T12:48:11.677Z,25.88
2022-08-28T12:50:44.772Z,25.13
2022-08-28T12:53:16.465Z,24.45
2022-08-28T12:55:48.975Z,25.14
2022-08-28T12:58:32.304Z,25.13
2022-08-28T13:01:07.310Z,23.98
2022-08-28T13:03:46.630Z,24.90
2022-08-28T13:06:26.965Z,25.05
2022-08-28T13:09:02.494Z,25.25
2022-08-28T13:11:36.257Z,25.59
2022-08-28T13:14:08.617Z,24.89
2022-08-28T13:16:42.181Z,24.98
2022-08-28T13:19:32.053Z,25.60
2022-08-28T13:22:08.569Z,26.39
2022-08-28T13:24:45.960Z,26.06
2022-08-28T13:27:26.968Z,27.35
2022-08-28T13:30:08.327Z,25.98
2022-08-28T13:32:41.045Z,26.46
2022-08-28T13:35:30.915Z,27.04
2022-08-28T13:38:04.779Z,31.54
2022-08-28T13:40:58.887Z,32.67
2022-08-28T13:43:31.651Z,32.05
2022-08-28T13:46:02.187Z,33.53
2022-08-28T13:48:32.442Z,31.46
2022-08-28T13:51:10.409Z,31.77
2022-08-28T13:53:43.932Z,32.50
2022-08-28T13:56:15.085Z,34.25
2022-08-28T13:58:57.847Z,33.04
2022-08-28T14:01:49.067Z,32.22
2022-08-28T14:04:16.780Z,34.49
2022-08-28T14:06:47.060Z,34.11
2022-08-28T14:09:20.023Z,35.42
2022-08-28T14:11:52.111Z,34.71
2022-08-28T14:14:22.413Z,33.38
2022-08-28T14:16:55.830Z,32.43
2022-08-28T14:19:26.198Z,31.53
2022-08-28T14:21:56.497Z,31.29
2022-08-28T14:24:29.561Z,31.91
2022-08-28T14:26:59.843Z,31.81
2022-08-28T14:29:31.573Z,30.92
2022-08-28T14:32:04.327Z,30.97
2022-08-28T14:34:34.925Z,30.10
2022-08-28T14:37:05.096Z,30.47
2022-08-28T14:39:37.978Z,29.75
2022-08-28T14:42:13.299Z,30.05
2022-08-28T14:44:43.631Z,30.26
2022-08-28T14:47:14.333Z,30.39
2022-08-28T14:49:44.730Z,30.10
2022-08-28T14:52:15.288Z,30.15
2022-08-28T14:54:48.303Z,30.01
2022-08-28T14:57:18.563Z,30.32
2022-08-28T14:59:48.773Z,30.59
2022-08-28T15:02:19.105Z,30.47
2022-08-28T15:04:52.347Z,30.10
2022-08-28T15:07:22.906Z,30.14
2022-08-28T15:09:55.739Z,30.48
2022-08-28T15:14:57.296Z,31.11
2022-08-28T15:17:34.000Z,31.29
2022-08-28T15:20:05.055Z,31.12
2022-08-28T15:22:35.195Z,31.43
2022-08-28T15:25:09.338Z,31.30
2022-08-28T15:27:39.921Z,31.19
2022-08-28T15:30:11.715Z,31.36
2022-08-28T15:32:44.769Z,31.54
2022-08-28T15:35:16.128Z,31.39
2022-08-28T15:37:46.452Z,31.10
2022-08-28T15:40:31.883Z,30.99
2022-08-28T15:43:02.093Z,31.82
2022-08-28T15:45:32.691Z,31.44
2022-08-28T15:48:03.072Z,31.62
2022-08-28T15:50:33.498Z,32.04
2022-08-28T15:53:03.965Z,32.01
2022-08-28T15:55:39.032Z,31.39
2022-08-28T15:58:14.117Z,32.02
2022-08-28T16:00:45.032Z,31.81
2022-08-28T16:03:15.777Z,32.16
2022-08-28T16:05:49.451Z,32.62
2022-08-28T16:08:19.649Z,32.35
2022-08-28T16:10:54.617Z,33.04
2022-08-28T16:13:25.479Z,32.91
2022-08-28T16:15:55.755Z,32.77
2022-08-28T16:18:26.244Z,33.68
2022-08-28T16:20:56.503Z,33.39
2022-08-28T16:23:26.832Z,33.44
2022-08-28T16:25:59.724Z,33.96
2022-08-28T16:28:30.255Z,34.40
2022-08-28T16:31:00.757Z,34.38
2022-08-28T16:33:30.989Z,34.78
2022-08-28T16:36:04.198Z,34.55
2022-08-28T16:38:34.678Z,34.46
2022-08-28T16:41:07.668Z,34.37
2022-08-28T16:43:38.648Z,35.03
2022-08-28T16:46:13.094Z,35.37
2022-08-28T16:48:44.269Z,35.30
2022-08-28T16:51:17.084Z,35.50
2022-08-28T16:53:47.914Z,35.63
2022-08-28T16:56:21.155Z,35.94
2022-08-28T16:58:53.036Z,36.46
2022-08-28T17:01:25.629Z,36.24
2022-08-28T17:03:56.859Z,36.59
2022-08-28T17:06:29.439Z,36.99
2022-08-28T17:09:00.904Z,36.83
2022-08-28T17:11:36.172Z,37.41
2022-08-28T17:14:07.909Z,37.61
2022-08-28T17:16:38.285Z,37.41
2022-08-28T17:19:08.651Z,38.25
2022-08-28T17:21:51.340Z,37.67
2022-08-28T17:24:21.729Z,38.11
2022-08-28T17:26:54.608Z,38.34
2022-08-28T17:29:24.847Z,38.24
2022-08-28T17:31:56.798Z,38.45
2022-08-28T17:34:30.228Z,40.54
2022-08-28T17:37:00.902Z,42.24
2022-08-28T17:39:31.208Z,44.88
2022-08-28T17:42:04.110Z,45.82
2022-08-28T17:44:35.410Z,47.32
2022-08-28T17:47:06.101Z,49.20
2022-08-28T17:49:36.490Z,50.61
2022-08-28T17:52:07.258Z,52.38
2022-08-28T17:54:37.605Z,56.48
2022-08-28T17:57:10.538Z,60.47
2022-08-28T17:59:40.837Z,63.08
2022-08-28T18:02:11.226Z,65.77
2022-08-28T18:04:41.524Z,67.37
2022-08-28T18:07:11.847Z,68.74
2022-08-28T18:09:42.118Z,70.63
2022-08-28T18:12:15.029Z,70.82
2022-08-28T18:14:45.489Z,72.29
2022-08-28T18:17:16.659Z,72.85
2022-08-28T18:19:47.061Z,72.61
2022-08-28T18:22:17.754Z,71.85
2022-08-28T18:24:48.313Z,70.80
2022-08-28T18:27:22.208Z,71.49
2022-08-28T18:29:52.515Z,72.18
2022-08-28T18:32:22.762Z,72.87
2022-08-28T18:34:53.087Z,72.89
2022-08-28T18:37:23.475Z,73.02
2022-08-28T18:39:54.446Z,74.20
2022-08-28T18:42:29.173Z,72.24
2022-08-28T18:45:00.136Z,70.92
2022-08-28T18:47:48.302Z,73.13
2022-08-28T18:50:22.001Z,72.21
2022-08-28T18:52:53.199Z,71.56
2022-08-28T18:55:25.115Z,72.34
2022-08-28T18:57:58.319Z,71.81
2022-08-28T19:00:29.497Z,71.73
2022-08-28T19:03:00.211Z,72.69
2022-08-28T19:05:30.662Z,72.45
2022-08-28T19:08:04.119Z,73.41
2022-08-28T19:10:35.214Z,72.35
2022-08-28T19:13:08.972Z,71.71
2022-08-28T19:15:39.973Z,72.58
2022-08-28T19:18:10.281Z,73.13
2022-08-28T19:20:40.638Z,73.39
2022-08-28T19:23:15.444Z,72.41
2022-08-28T19:25:49.066Z,72.34
2022-08-28T19:28:22.046Z,72.15
2022-08-28T19:30:52.302Z,70.46
2022-08-28T19:33:22.679Z,70.49
2022-08-28T19:35:53.514Z,71.52
2022-08-28T19:38:23.789Z,71.55
2022-08-28T19:40:54.909Z,73.13
2022-08-28T19:43:41.612Z,73.69
2022-08-28T19:46:20.092Z,73.24
2022-08-28T19:48:51.762Z,73.68
2022-08-28T19:51:24.073Z,73.51
2022-08-28T19:53:58.596Z,74.07
2022-08-28T19:56:30.548Z,73.64
2022-08-28T19:59:05.110Z,74.76
2022-08-28T20:01:38.317Z,74.67
2022-08-28T20:04:13.566Z,75.56
2022-08-28T20:06:43.792Z,75.87
2022-08-28T20:09:14.331Z,76.38
2022-08-28T20:11:47.062Z,77.01
2022-08-28T20:14:21.325Z,76.10
2022-08-28T20:16:54.562Z,76.11
2022-08-28T20:19:25.030Z,75.25
2022-08-28T20:21:55.955Z,75.39
2022-08-28T20:24:26.713Z,75.79
2022-08-28T20:26:57.519Z,75.58
2022-08-28T20:29:31.024Z,74.84
2022-08-28T20:32:01.699Z,74.81
2022-08-28T20:34:32.411Z,75.20
2022-08-28T20:37:02.671Z,74.10
2022-08-28T20:39:32.974Z,74.31
2022-08-28T20:42:03.244Z,73.43
2022-08-28T20:44:36.073Z,73.53
2022-08-28T20:47:06.627Z,73.99
2022-08-28T20:49:39.392Z,75.05
2022-08-28T20:52:09.827Z,74.73
2022-08-28T20:54:42.139Z,75.47
2022-08-28T20:57:14.046Z,75.25
2022-08-28T20:59:48.253Z,74.75
2022-08-28T21:02:21.875Z,74.80
2022-08-28T21:04:52.332Z,74.04
2022-08-28T21:07:24.924Z,73.47
2022-08-28T21:10:05.087Z,73.48
2022-08-28T21:12:37.941Z,73.23
2022-08-28T21:15:14.232Z,73.16
2022-08-28T21:17:45.086Z,73.68
2022-08-28T21:20:17.724Z,74.03
2022-08-28T21:22:48.488Z,73.58
2022-08-28T21:25:19.105Z,72.79
2022-08-28T21:27:49.921Z,72.87
2022-08-28T21:30:25.636Z,73.26
2022-08-28T21:33:00.078Z,72.48
2022-08-28T21:35:30.289Z,72.33
2022-08-28T21:38:00.561Z,72.45
2022-08-28T21:40:30.872Z,72.21
2022-08-28T21:43:01.191Z,71.01
2022-08-28T21:45:34.034Z,71.52
2022-08-28T21:48:04.298Z,71.72
2022-08-28T21:50:34.515Z,71.03
2022-08-28T21:53:05.338Z,71.94
2022-08-28T21:55:35.609Z,71.13
2022-08-28T21:58:06.239Z,71.60
2022-08-28T22:00:39.117Z,71.87
2022-08-28T22:03:09.332Z,71.61
2022-08-28T22:05:40.151Z,71.56
2022-08-28T22:08:10.924Z,72.13
2022-08-28T22:10:42.970Z,71.71
2022-08-28T22:13:15.149Z,72.14
2022-08-28T22:15:49.442Z,71.65
2022-08-28T22:18:19.991Z,71.55
2022-08-28T22:21:03.077Z,71.47
2022-08-28T22:23:35.236Z,71.19
2022-08-28T22:26:07.097Z,70.83
2022-08-28T22:28:37.551Z,71.01
2022-08-28T22:31:10.330Z,70.42
2022-08-28T22:33:41.141Z,70.55
2022-08-28T22:36:12.312Z,70.81
2022-08-28T22:38:53.151Z,69.73
2022-08-28T22:41:24.272Z,69.90
2022-08-28T22:43:55.008Z,70.08
2022-08-28T22:46:28.409Z,70.11
2022-08-28T22:48:59.169Z,70.45
2022-08-28T22:51:29.412Z,70.66
2022-08-28T22:53:59.629Z,70.61
2022-08-28T22:56:29.911Z,70.44
2022-08-28T22:59:00.223Z,70.18
2022-08-28T23:01:33.171Z,70.79
2022-08-28T23:04:04.166Z,70.86
2022-08-28T23:06:35.259Z,70.49
2022-08-28T23:09:05.451Z,70.66
2022-08-28T23:11:35.687Z,70.73
2022-08-28T23:14:06.196Z,69.86
2022-08-28T23:16:39.070Z,69.94
2022-08-28T23:19:13.209Z,69.58
2022-08-28T23:21:44.642Z,69.27
2022-08-28T23:24:16.237Z,68.96
2022-08-28T23:26:47.571Z,69.14
2022-08-28T23:29:17.782Z,69.65
2022-08-28T23:31:50.679Z,69.71
2022-08-28T23:34:23.945Z,69.30
2022-08-28T23:36:54.240Z,69.86
2022-08-28T23:39:25.272Z,69.71
2022-08-28T23:41:58.123Z,69.28
2022-08-28T23:44:28.499Z,69.29
2022-08-28T23:47:01.307Z,69.10
2022-08-28T23:49:32.861Z,69.61
2022-08-28T23:52:03.047Z,69.15
2022-08-28T23:54:33.242Z,69.19
2022-08-28T23:57:03.543Z,69.16
2022-08-28T23:59:35.639Z,69.58
